Franklin, Kentucky
Current Conditions -  °F | °C
As of 12:53 PM on Thursday 18 Dec 2014 (Local Time) from KBWG Reporting Station
Overcast Overcast  
Wind Chill: 35°   Ceiling: 4300
Heat Index: 35°   Visibility: 9mi
Dew Point: 26°   Wind: 3mph
Humidity: 70%   Direction: 10°N
Pressure: 30.25"   Gusts: NA
Location:  36.72°N, 86.58°W
Report Text: KBWG 181853Z AUTO 01003KT 9SM OVC043 02/M03 A3025 RMK AO2 SLP247 T00171033
Loading
Personal Weather Stations






























Interactive Weather Map New forecast layout! Learn more

10-Day Weather Forecast

Advertisements
Track Severe Weather on mobile